VDPP Airport Information

Runway Information
Runway 05 Length 9843 ft width 144 ft
Elevation 40 ft Threshold 0 ft Heading 46
Runway 23 Length 9843 ft Width 144 ft
Elevation 37 ft Threshold 492 ft Heading 226
Airport Frequencies
Type ACC Name ACC Frequency 127.5 MHZ
Type APP Name APP Frequency 123.8 MHZ
Type ATIS Name ATIS Frequency 127.25 MHZ
Type TWR Name TWR Frequency 118 MHZ
Airport Navaids
Type VOR-DME Name Phnom Penh Frequency 114300 KHZ
Type NDB Name Phnom Penh Frequency 376 KHZ
Airport Weather Information & NOTAM
ADDS - METARS form results

(1226 UTC 24 January 2019)
Data provider http://aviationweather.gov/metar/data/
 
METAR text: VDPP 241200Z VRB02KT 9000 FEW017 28/14 Q1011
Conditions at: VDPP (PHNOM-PENH/POCHE, KH) observed 1200 UTC 24 January 2019
Temperature: 28.0°C (82°F)
Dewpoint: 14.0°C (57°F) [RH = 42%]
Pressure (altimeter): 29.85 inches Hg (1011.0 mb)
Winds: variable direction winds at 2 MPH (2 knots; 1.0 m/s)
Visibility: 6 miles ( 9 km)
Ceiling: at least 12,000 feet AGL
Clouds: few clouds at 1700 feet AGL
Weather: no significant weather observed at this time

METAR text: VDPP 241130Z 01002KT 9000 FEW017 29/14 Q1011
Conditions at: VDPP (PHNOM-PENH/POCHE, KH) observed 1130 UTC 24 January 2019
Temperature: 29.0°C (84°F)
Dewpoint: 14.0°C (57°F) [RH = 40%]
Pressure (altimeter): 29.85 inches Hg (1011.0 mb)
Winds: from the N (10 degrees) at 2 MPH (2 knots; 1.0 m/s)
Visibility: 6 miles ( 9 km)
Ceiling: at least 12,000 feet AGL
Clouds: few clouds at 1700 feet AGL
Weather: no significant weather observed at this time

Forecast for: VDPP (PHNOM-PENH/POCHE, KH)
Text: TAF VDPP 241100Z 2412/2506 01005KT 9999 SCT017
Forecast period: 1200 UTC 24 January 2019 to 0600 UTC 25 January 2019
Forecast type: FROM: standard forecast or significant change
Winds: from the N (10 degrees) at 6 MPH (5 knots; 2.6 m/s)
Visibility: 6 or more miles 10+ km)
Ceiling: at least 12,000 feet AGL
Clouds: scattered clouds at 1700 feet AGL
Weather: no significant weather forecast for this period